Time;durP1;ratioP1;P1;durP2;ratioP2;P2;SDS_P1;SDS_P2;PMS_P1;PMS_P2;Temp;Humidity;BMP_temperature;BMP_pressure;BME280_temperature;BME280_humidity;BME280_pressure;Samples;Min_cycle;Max_cycle;Signal;HPM_P1;HPM_P2
2023/12/24 00:01:56;;;;;;;21.77;12.73;;;;;;;4.74;100.00;99223.34;4894743;29;20108;-79
2023/12/24 00:04:23;;;;;;;15.80;11.95;;;;;;;4.68;100.00;99229.03;4891399;29;20477;-81
2023/12/24 00:06:49;;;;;;;20.73;12.85;;;;;;;4.60;100.00;99228.75;4892608;29;20035;-80
2023/12/24 00:09:14;;;;;;;22.60;13.45;;;;;;;4.49;100.00;99225.16;4893738;29;20100;-80
2023/12/24 00:11:40;;;;;;;19.00;12.63;;;;;;;4.44;100.00;99227.28;4886482;29;20033;-78
2023/12/24 00:14:05;;;;;;;17.15;12.55;;;;;;;4.31;100.00;99218.66;4894463;29;21182;-79
2023/12/24 00:16:31;;;;;;;22.27;13.18;;;;;;;4.23;100.00;99226.25;4884964;29;20078;-81
2023/12/24 00:18:57;;;;;;;19.83;13.38;;;;;;;4.19;100.00;99232.59;4891017;29;20044;-81
2023/12/24 00:21:24;;;;;;;20.35;12.98;;;;;;;4.23;100.00;99228.84;4890112;29;20176;-80
2023/12/24 00:23:49;;;;;;;21.83;12.80;;;;;;;4.28;100.00;99231.97;4891629;29;20029;-80
2023/12/24 00:26:16;;;;;;;23.02;13.35;;;;;;;4.26;100.00;99228.63;4892375;29;20111;-80
2023/12/24 00:28:42;;;;;;;17.90;11.55;;;;;;;4.29;100.00;99233.63;4893915;29;20049;-80
2023/12/24 00:31:07;;;;;;;20.80;13.07;;;;;;;4.34;100.00;99247.19;4893571;29;20358;-79
2023/12/24 00:33:33;;;;;;;19.48;12.27;;;;;;;4.32;100.00;99233.41;4874243;29;20397;-78
2023/12/24 00:35:58;;;;;;;20.20;13.43;;;;;;;4.29;100.00;99228.41;4887201;29;20043;-76
2023/12/24 00:38:24;;;;;;;18.98;12.65;;;;;;;4.28;100.00;99226.72;4892483;29;20128;-80
2023/12/24 00:40:50;;;;;;;21.35;12.75;;;;;;;4.40;100.00;99236.28;4891716;29;20498;-79
2023/12/24 00:43:15;;;;;;;20.27;12.60;;;;;;;4.45;100.00;99234.19;4889635;29;20491;-80
2023/12/24 00:45:41;;;;;;;17.27;11.88;;;;;;;4.52;100.00;99235.41;4894899;29;20040;-79
2023/12/24 00:48:07;;;;;;;21.25;12.95;;;;;;;4.57;100.00;99242.91;4891175;29;20028;-79
2023/12/24 00:50:33;;;;;;;17.58;12.32;;;;;;;4.52;100.00;99245.84;4886770;29;20835;-79
2023/12/24 00:52:58;;;;;;;19.77;12.85;;;;;;;4.37;100.00;99241.72;4891034;29;20033;-79
2023/12/24 00:55:24;;;;;;;18.08;12.63;;;;;;;4.26;100.00;99244.28;4892191;29;20100;-79
2023/12/24 00:57:49;;;;;;;16.42;11.55;;;;;;;4.15;100.00;99236.38;4890334;29;20511;-79
2023/12/24 01:00:16;;;;;;;18.92;12.52;;;;;;;4.17;100.00;99233.69;4891186;29;20033;-79
2023/12/24 01:02:41;;;;;;;17.73;12.50;;;;;;;4.16;100.00;99238.06;4888327;29;20040;-78
2023/12/24 01:05:08;;;;;;;21.10;13.68;;;;;;;4.13;100.00;99233.03;4890390;29;20355;-79
2023/12/24 01:07:33;;;;;;;20.17;12.35;;;;;;;4.05;100.00;99248.44;4885544;29;20398;-78
2023/12/24 01:09:59;;;;;;;19.38;12.55;;;;;;;4.01;100.00;99241.75;4889621;29;20029;-79
2023/12/24 01:12:25;;;;;;;20.00;14.13;;;;;;;3.96;100.00;99249.09;4889180;29;20516;-79
2023/12/24 01:14:50;;;;;;;17.00;12.65;;;;;;;3.94;100.00;99256.22;4889874;29;20036;-79
2023/12/24 01:17:16;;;;;;;22.58;13.82;;;;;;;3.74;100.00;99259.38;4891030;29;20044;-79
2023/12/24 01:19:41;;;;;;;20.33;14.80;;;;;;;3.79;100.00;99265.09;4886562;29;20175;-82
2023/12/24 01:22:08;;;;;;;20.55;13.93;;;;;;;3.84;100.00;99260.38;4889015;29;20047;-80
2023/12/24 01:24:34;;;;;;;23.40;13.85;;;;;;;3.85;100.00;99254.22;4891585;29;20052;-82
2023/12/24 01:26:59;;;;;;;19.45;13.38;;;;;;;3.87;100.00;99265.41;4886946;29;20188;-79
2023/12/24 01:29:25;;;;;;;19.60;12.60;;;;;;;3.87;100.00;99274.06;4888855;29;20032;-78
2023/12/24 01:31:50;;;;;;;22.45;13.25;;;;;;;3.84;100.00;99278.66;4890074;29;20041;-80
2023/12/24 01:34:16;;;;;;;19.35;13.70;;;;;;;3.69;100.00;99277.97;4888840;29;20033;-80
2023/12/24 01:36:42;;;;;;;21.50;14.07;;;;;;;3.57;100.00;99290.06;4889769;29;20044;-79
2023/12/24 01:39:07;;;;;;;19.77;14.13;;;;;;;3.49;100.00;99284.53;4885084;29;20115;-79
2023/12/24 01:41:34;;;;;;;18.48;12.95;;;;;;;3.44;100.00;99275.34;4887298;29;20040;-79
2023/12/24 01:43:59;;;;;;;22.55;13.77;;;;;;;3.42;100.00;99277.22;4892819;29;20033;-76
2023/12/24 01:46:25;;;;;;;19.95;14.23;;;;;;;3.33;100.00;99289.13;4885741;29;20442;-79
2023/12/24 01:48:52;;;;;;;19.58;13.43;;;;;;;3.16;100.00;99285.06;4887846;29;20032;-79
2023/12/24 01:51:20;;;;;;;21.85;13.15;;;;;;;3.08;100.00;99294.31;4887646;29;20068;-80
2023/12/24 01:53:50;;;;;;;23.48;13.98;;;;;;;2.98;100.00;99295.88;4886812;29;20071;-80
2023/12/24 01:56:19;;;;;;;19.98;13.23;;;;;;;2.83;100.00;99302.91;4884556;29;20044;-82
2023/12/24 01:58:46;;;;;;;20.55;13.75;;;;;;;2.66;100.00;99309.22;4883695;29;20051;-79
2023/12/24 02:01:12;;;;;;;19.67;14.50;;;;;;;2.60;100.00;99307.00;4882249;29;20029;-80
2023/12/24 02:03:38;;;;;;;26.40;14.05;;;;;;;2.58;100.00;99290.66;4883986;29;20394;-79
2023/12/24 02:06:08;;;;;;;24.75;14.32;;;;;;;2.64;100.00;99305.91;4884166;29;20404;-79
2023/12/24 02:08:36;;;;;;;22.85;14.05;;;;;;;2.76;100.00;99286.88;4886125;29;20040;-80
2023/12/24 02:11:04;;;;;;;22.52;14.02;;;;;;;2.92;100.00;99298.88;4885772;29;20036;-79
2023/12/24 02:13:32;;;;;;;22.52;13.02;;;;;;;3.05;100.00;99289.31;4883381;29;20102;-79
2023/12/24 02:16:02;;;;;;;23.25;14.50;;;;;;;3.11;100.00;99299.34;4886993;29;20164;-80
2023/12/24 02:18:28;;;;;;;24.17;14.43;;;;;;;3.10;100.00;99315.91;4885138;29;20079;-79
2023/12/24 02:21:02;;;;;;;23.52;14.32;;;;;;;3.13;100.00;99318.31;4884924;29;20085;-81
2023/12/24 02:23:28;;;;;;;23.05;13.77;;;;;;;3.13;100.00;99328.72;4883425;29;20132;-80
2023/12/24 02:25:57;;;;;;;18.80;13.27;;;;;;;3.11;100.00;99325.41;4884976;29;20396;-80
2023/12/24 02:28:27;;;;;;;21.80;13.63;;;;;;;3.07;100.00;99335.19;4883748;29;20049;-79
2023/12/24 02:30:59;;;;;;;24.90;14.95;;;;;;;2.95;100.00;99340.38;4887540;29;20056;-79
2023/12/24 02:33:29;;;;;;;21.90;14.55;;;;;;;3.00;100.00;99335.72;4884416;29;20116;-80
2023/12/24 02:35:58;;;;;;;17.98;12.77;;;;;;;2.92;100.00;99335.38;4884560;29;20112;-80
2023/12/24 02:38:24;;;;;;;21.77;13.85;;;;;;;2.99;100.00;99326.22;4884625;29;20080;-80
2023/12/24 02:40:49;;;;;;;21.65;13.85;;;;;;;2.71;100.00;99317.56;4885162;29;20111;-80
2023/12/24 02:43:15;;;;;;;18.35;13.38;;;;;;;2.63;100.00;99317.25;4884085;29;20434;-80
2023/12/24 02:45:42;;;;;;;23.23;14.07;;;;;;;2.76;100.00;99320.75;4886893;29;20037;-78
2023/12/24 02:48:08;;;;;;;17.90;12.93;;;;;;;2.73;100.00;99325.28;4883329;29;20047;-79
2023/12/24 02:50:34;;;;;;;19.77;13.55;;;;;;;2.67;100.00;99310.91;4887618;29;20442;-79
2023/12/24 02:52:59;;;;;;;17.10;13.05;;;;;;;2.64;100.00;99308.50;4887099;29;20088;-78
2023/12/24 02:55:25;;;;;;;21.80;13.18;;;;;;;2.64;100.00;99307.66;4886936;29;20047;-79
2023/12/24 02:57:51;;;;;;;21.02;14.13;;;;;;;2.61;100.00;99300.88;4888244;29;20025;-79
2023/12/24 03:00:17;;;;;;;21.40;13.98;;;;;;;2.52;100.00;99301.47;4887503;29;20489;-79
2023/12/24 03:02:42;;;;;;;22.10;13.95;;;;;;;2.45;100.00;99315.81;4889869;29;20044;-78
2023/12/24 03:05:08;;;;;;;20.42;14.45;;;;;;;2.37;100.00;99312.84;4886468;29;20750;-79
2023/12/24 03:07:33;;;;;;;20.77;14.65;;;;;;;2.25;100.00;99292.81;4888084;29;20036;-79
2023/12/24 03:09:59;;;;;;;18.50;12.88;;;;;;;2.24;100.00;99285.94;4886259;29;20117;-79
2023/12/24 03:12:25;;;;;;;17.92;12.63;;;;;;;2.31;100.00;99289.81;4887057;29;20475;-79
2023/12/24 03:14:51;;;;;;;24.00;14.52;;;;;;;2.37;100.00;99300.69;4889152;29;20029;-79
2023/12/24 03:17:16;;;;;;;21.63;14.07;;;;;;;2.37;100.00;99300.69;4888986;29;20045;-80
2023/12/24 03:19:43;;;;;;;18.92;13.50;;;;;;;2.41;100.00;99311.75;4886471;29;20029;-80
2023/12/24 03:22:09;;;;;;;18.58;11.80;;;;;;;2.44;100.00;99322.78;4888259;29;20040;-79
2023/12/24 03:24:34;;;;;;;25.52;13.68;;;;;;;2.44;100.00;99309.78;4886260;29;20033;-79
2023/12/24 03:27:00;;;;;;;20.63;13.07;;;;;;;2.47;100.00;99313.97;4887751;29;20033;-80
2023/12/24 03:29:25;;;;;;;20.17;13.55;;;;;;;2.42;100.00;99305.59;4886545;29;20041;-80
2023/12/24 03:31:51;;;;;;;19.95;12.63;;;;;;;2.41;100.00;99309.16;4887257;29;20052;-82
2023/12/24 03:34:17;;;;;;;26.00;13.23;;;;;;;2.44;100.00;99314.16;4887845;29;20055;-81
2023/12/24 03:36:42;;;;;;;19.30;12.73;;;;;;;2.49;100.00;99317.28;4887034;29;20089;-81
2023/12/24 03:39:09;;;;;;;21.95;13.52;;;;;;;2.35;100.00;99309.53;4888386;29;20048;-80
2023/12/24 03:41:35;;;;;;;21.98;13.30;;;;;;;2.30;100.00;99316.78;4886395;29;20048;-80
2023/12/24 03:44:01;;;;;;;20.88;13.63;;;;;;;2.21;100.00;99306.94;4888904;29;20040;-80
2023/12/24 03:46:28;;;;;;;22.17;14.02;;;;;;;2.14;100.00;99308.25;4885751;29;20072;-81
2023/12/24 03:48:54;;;;;;;28.48;13.05;;;;;;;2.02;100.00;99308.09;4887231;29;20452;-80
2023/12/24 03:51:20;;;;;;;23.10;14.30;;;;;;;1.92;100.00;99301.81;4887906;29;20032;-80
2023/12/24 03:53:46;;;;;;;24.08;14.48;;;;;;;1.86;100.00;99299.56;4888443;29;20035;-80
2023/12/24 03:56:11;;;;;;;21.80;14.60;;;;;;;1.82;100.00;99311.09;4885241;29;20037;-79
2023/12/24 03:58:38;;;;;;;19.15;13.32;;;;;;;1.80;100.00;99315.56;4888537;29;20378;-78
2023/12/24 04:01:08;;;;;;;18.10;14.15;;;;;;;1.76;100.00;99314.09;4883689;29;20040;-79
2023/12/24 04:03:34;;;;;;;18.35;13.80;;;;;;;1.81;100.00;99314.63;4889079;29;20045;-78
2023/12/24 04:06:01;;;;;;;18.80;13.45;;;;;;;1.83;100.00;99323.16;4885968;29;20316;-78
2023/12/24 04:08:26;;;;;;;21.20;14.38;;;;;;;1.86;100.00;99328.19;4891585;29;20048;-79
2023/12/24 04:10:52;;;;;;;26.20;14.27;;;;;;;1.85;100.00;99323.91;4885301;29;20039;-80
2023/12/24 04:13:18;;;;;;;19.90;13.73;;;;;;;1.86;100.00;99307.38;4885196;29;20048;-80
2023/12/24 04:15:43;;;;;;;18.35;12.50;;;;;;;1.84;100.00;99317.03;4887744;29;20036;-79
2023/12/24 04:18:09;;;;;;;18.52;13.00;;;;;;;1.82;100.00;99311.09;4884892;29;20128;-79
2023/12/24 04:20:35;;;;;;;20.17;13.15;;;;;;;1.88;100.00;99313.34;4887704;29;20124;-81
2023/12/24 04:23:01;;;;;;;19.30;13.25;;;;;;;1.81;100.00;99330.25;4910575;29;20402;-80
2023/12/24 04:25:26;;;;;;;20.35;12.98;;;;;;;1.75;100.00;99325.41;4886501;29;20516;-79
2023/12/24 04:27:52;;;;;;;18.83;12.90;;;;;;;1.71;100.00;99323.91;4884688;29;20433;-78
2023/12/24 04:30:17;;;;;;;20.92;12.95;;;;;;;1.68;100.00;99323.28;4887558;29;20040;-80
2023/12/24 04:32:43;;;;;;;18.73;12.98;;;;;;;1.62;100.00;99317.50;4884672;29;20390;-80
2023/12/24 04:35:10;;;;;;;19.90;12.88;;;;;;;1.63;100.00;99315.75;4889837;29;20032;-81
2023/12/24 04:37:35;;;;;;;16.40;12.15;;;;;;;1.67;100.00;99317.22;4884365;29;20025;-79
2023/12/24 04:40:01;;;;;;;17.83;12.50;;;;;;;1.60;100.00;99310.72;4887295;29;20043;-79
2023/12/24 04:42:26;;;;;;;17.08;12.75;;;;;;;1.60;100.00;99316.75;4884870;29;20028;-82
2023/12/24 04:44:52;;;;;;;18.48;12.75;;;;;;;1.65;100.00;99324.28;4885695;29;20029;-79
2023/12/24 04:47:17;;;;;;;23.33;13.05;;;;;;;1.70;100.00;99326.63;4886317;29;20051;-83
2023/12/24 04:49:43;;;;;;;19.58;13.23;;;;;;;1.74;100.00;99318.53;4883778;29;20112;-80
2023/12/24 04:52:09;;;;;;;20.08;12.40;;;;;;;1.77;100.00;99320.13;4885891;29;20033;-80
2023/12/24 04:54:34;;;;;;;17.52;12.15;;;;;;;1.85;100.00;99320.47;4884592;29;20021;-81
2023/12/24 04:57:01;;;;;;;20.48;13.20;;;;;;;1.82;100.00;99331.94;4891153;29;20052;-79
2023/12/24 04:59:27;;;;;;;18.35;12.00;;;;;;;1.74;100.00;99334.13;4887172;29;20405;-80
2023/12/24 05:01:52;;;;;;;19.95;11.95;;;;;;;1.64;100.00;99333.03;4887981;29;20042;-78
2023/12/24 05:04:18;;;;;;;18.48;12.43;;;;;;;1.55;100.00;99334.41;4888980;29;20033;-78
2023/12/24 05:06:44;;;;;;;16.67;11.90;;;;;;;1.49;100.00;99328.72;4886202;29;20037;-79
2023/12/24 05:09:10;;;;;;;16.60;11.48;;;;;;;1.46;100.00;99339.34;4889365;29;20040;-80
2023/12/24 05:11:39;;;;;;;15.75;12.00;;;;;;;1.47;100.00;99330.59;4887812;29;20040;-80
2023/12/24 05:14:05;;;;;;;17.30;12.43;;;;;;;1.48;100.00;99334.84;4902424;29;20028;-78
2023/12/24 05:16:30;;;;;;;17.25;12.73;;;;;;;1.54;100.00;99337.09;4899851;29;20613;-80
2023/12/24 05:18:56;;;;;;;18.77;12.50;;;;;;;1.56;100.00;99350.84;4878670;29;20078;-79
2023/12/24 05:21:21;;;;;;;22.80;12.15;;;;;;;1.60;100.00;99362.72;4896031;29;20458;-78
2023/12/24 05:23:47;;;;;;;17.02;12.05;;;;;;;1.68;100.00;99365.72;4889041;29;20037;-79
2023/12/24 05:26:12;;;;;;;17.30;11.70;;;;;;;1.69;100.00;99362.19;4892742;29;20033;-78
2023/12/24 05:28:38;;;;;;;18.90;11.43;;;;;;;1.75;100.00;99356.63;4891660;29;20119;-80
2023/12/24 05:31:03;;;;;;;21.27;12.23;;;;;;;1.79;100.00;99352.06;4890056;29;20033;-79
2023/12/24 05:33:30;;;;;;;18.85;11.98;;;;;;;1.80;100.00;99359.78;4893324;29;20087;-79
2023/12/24 05:35:55;;;;;;;15.90;12.48;;;;;;;1.75;100.00;99364.44;4889154;29;20064;-79
2023/12/24 05:38:21;;;;;;;16.27;12.35;;;;;;;1.74;100.00;99365.34;4889495;29;20048;-79
2023/12/24 05:40:46;;;;;;;18.83;12.38;;;;;;;1.75;100.00;99372.25;4887496;29;20037;-78
2023/12/24 05:43:12;;;;;;;18.63;11.18;;;;;;;1.74;100.00;99375.75;4891281;29;20061;-78
2023/12/24 05:45:37;;;;;;;13.82;11.38;;;;;;;1.61;100.00;99369.63;4886250;29;20056;-79
2023/12/24 05:48:03;;;;;;;18.80;12.05;;;;;;;1.55;100.00;99386.41;4887906;29;20040;-80
2023/12/24 05:50:29;;;;;;;14.43;11.15;;;;;;;1.53;100.00;99392.66;4880826;29;20037;-80
2023/12/24 05:52:55;;;;;;;17.58;11.45;;;;;;;1.55;100.00;99393.38;4886008;29;20044;-80
2023/12/24 05:55:20;;;;;;;18.45;12.00;;;;;;;1.44;100.00;99398.38;4886075;29;20070;-80
2023/12/24 05:57:46;;;;;;;15.65;10.90;;;;;;;1.42;100.00;99397.63;4909977;29;20405;-78
2023/12/24 06:00:12;;;;;;;16.75;12.65;;;;;;;1.36;100.00;99400.56;4886558;29;20497;-80
2023/12/24 06:02:41;;;;;;;20.67;12.32;;;;;;;1.31;100.00;99407.81;4886101;29;20040;-81
2023/12/24 06:05:07;;;;;;;15.40;11.32;;;;;;;1.23;100.00;99397.88;4892807;29;20037;-79
2023/12/24 06:07:32;;;;;;;14.75;12.23;;;;;;;1.16;100.00;99394.78;4890974;29;20422;-79
2023/12/24 06:09:58;;;;;;;18.42;12.50;;;;;;;1.18;100.00;99398.09;4889254;29;20367;-77
2023/12/24 06:12:24;;;;;;;18.77;11.80;;;;;;;1.22;100.00;99399.63;4887311;29;20040;-80
2023/12/24 06:14:49;;;;;;;18.77;12.65;;;;;;;1.27;100.00;99411.50;4886678;29;20374;-80
2023/12/24 06:17:15;;;;;;;19.27;11.95;;;;;;;1.35;100.00;99409.31;4886979;29;20131;-81
2023/12/24 06:19:40;;;;;;;18.58;12.48;;;;;;;1.30;100.00;99411.34;4884127;29;20117;-78
2023/12/24 06:22:06;;;;;;;21.25;12.93;;;;;;;1.21;100.00;99404.91;4890695;29;20501;-79
2023/12/24 06:24:31;;;;;;;15.88;12.07;;;;;;;1.31;100.00;99403.44;4889837;29;20481;-80
2023/12/24 06:26:57;;;;;;;17.10;12.50;;;;;;;1.40;100.00;99404.69;4889550;29;20029;-80
2023/12/24 06:29:22;;;;;;;17.30;12.45;;;;;;;1.45;100.00;99426.06;4889609;29;20044;-79
2023/12/24 06:31:48;;;;;;;18.88;12.45;;;;;;;1.41;100.00;99435.81;4888685;29;20104;-79
2023/12/24 06:34:14;;;;;;;17.08;12.50;;;;;;;1.36;100.00;99437.81;4890408;29;20047;-76
2023/12/24 06:36:40;;;;;;;16.77;12.80;;;;;;;1.30;100.00;99421.75;4896679;29;20388;-80
2023/12/24 06:39:05;;;;;;;19.10;13.18;;;;;;;1.19;100.00;99433.56;4893918;29;20336;-85
2023/12/24 06:41:31;;;;;;;20.92;12.90;;;;;;;1.15;100.00;99442.47;4891482;29;20749;-85
2023/12/24 06:43:57;;;;;;;21.38;14.13;;;;;;;1.10;100.00;99452.31;4894228;29;20446;-83
2023/12/24 06:46:24;;;;;;;15.68;12.88;;;;;;;0.94;100.00;99451.50;4893130;29;20089;-83
2023/12/24 06:48:50;;;;;;;18.33;12.35;;;;;;;0.90;100.00;99449.13;4893256;29;20100;-84
2023/12/24 06:51:16;;;;;;;19.10;12.48;;;;;;;0.86;100.00;99448.47;4894124;29;20111;-84
2023/12/24 06:53:42;;;;;;;15.63;11.40;;;;;;;0.82;100.00;99452.16;4894632;29;20123;-82
2023/12/24 06:56:07;;;;;;;19.50;11.73;;;;;;;0.83;100.00;99436.47;4894576;29;20024;-83
2023/12/24 06:58:33;;;;;;;17.02;12.32;;;;;;;0.89;100.00;99445.69;4892966;29;20041;-80
2023/12/24 07:00:58;;;;;;;17.35;11.98;;;;;;;0.93;100.00;99449.81;4890898;29;20029;-83
2023/12/24 07:03:24;;;;;;;14.52;10.98;;;;;;;1.01;100.00;99452.78;4890281;29;20037;-83
2023/12/24 07:05:50;;;;;;;18.73;12.73;;;;;;;0.89;100.00;99442.25;4890606;29;20032;-84
2023/12/24 07:08:15;;;;;;;17.95;11.40;;;;;;;0.74;100.00;99428.34;4894311;29;20505;-83
2023/12/24 07:10:41;;;;;;;15.45;11.60;;;;;;;0.71;100.00;99425.91;4894636;29;20040;-84
2023/12/24 07:13:07;;;;;;;18.02;12.48;;;;;;;0.62;100.00;99424.69;4890086;29;20041;-79
2023/12/24 07:15:39;;;;;;;18.00;12.25;;;;;;;0.66;100.00;99461.69;4891445;29;20060;-77
2023/12/24 07:18:05;;;;;;;18.05;11.98;;;;;;;0.74;100.00;99455.16;4893017;29;20043;-78
2023/12/24 07:20:30;;;;;;;16.13;11.45;;;;;;;0.83;100.00;99453.81;4891661;29;20409;-79
2023/12/24 07:22:56;;;;;;;15.60;11.77;;;;;;;0.89;100.00;99463.88;4893096;29;20053;-80
2023/12/24 07:25:23;;;;;;;19.50;10.98;;;;;;;0.94;100.00;99474.03;4887336;29;20044;-77
2023/12/24 07:27:49;;;;;;;15.05;11.48;;;;;;;1.01;100.00;99463.19;4895807;29;20111;-77
2023/12/24 07:30:14;;;;;;;17.15;10.65;;;;;;;1.08;100.00;99463.69;4890968;29;20072;-77
2023/12/24 07:32:48;;;;;;;15.35;10.95;;;;;;;1.16;100.00;99464.94;4890632;29;20055;-78
2023/12/24 07:35:14;;;;;;;16.45;11.80;;;;;;;1.27;100.00;99479.09;4886607;29;20490;-80
2023/12/24 07:37:40;;;;;;;19.08;11.75;;;;;;;1.33;100.00;99481.34;4891410;29;20063;-78
2023/12/24 07:40:09;;;;;;;17.30;11.02;;;;;;;1.27;100.00;99479.94;4888556;29;20080;-79
2023/12/24 07:42:36;;;;;;;16.27;11.43;;;;;;;1.32;100.00;99488.31;4892508;29;20088;-78
2023/12/24 07:45:05;;;;;;;19.55;12.23;;;;;;;1.54;100.00;99480.13;4887276;29;20052;-76
2023/12/24 07:47:31;;;;;;;15.32;11.55;;;;;;;1.71;100.00;99487.78;4892466;29;20406;-78
2023/12/24 07:49:57;;;;;;;16.10;11.43;;;;;;;1.86;100.00;99484.31;4890951;29;20044;-79
2023/12/24 07:52:22;;;;;;;18.02;11.57;;;;;;;1.99;100.00;99497.44;4898329;29;20465;-78
2023/12/24 07:54:48;;;;;;;16.38;11.73;;;;;;;2.01;100.00;99499.00;4893882;29;20058;-79
2023/12/24 07:57:13;;;;;;;20.90;12.40;;;;;;;2.03;100.00;99507.56;4898748;29;20047;-76
2023/12/24 07:59:40;;;;;;;19.20;12.75;;;;;;;2.01;100.00;99514.63;4892548;29;20139;-76
2023/12/24 08:02:06;;;;;;;17.52;11.88;;;;;;;1.98;100.00;99527.00;4896878;29;20036;-79
2023/12/24 08:04:32;;;;;;;13.48;11.02;;;;;;;1.94;100.00;99523.75;4898207;29;20040;-80
2023/12/24 08:06:58;;;;;;;18.02;11.90;;;;;;;1.98;100.00;99519.19;4895420;29;20123;-83
2023/12/24 08:09:23;;;;;;;16.15;11.85;;;;;;;1.94;100.00;99530.72;4896788;29;20756;-82
2023/12/24 08:11:49;;;;;;;17.98;12.27;;;;;;;1.84;100.00;99529.53;4896628;29;20089;-80
2023/12/24 08:14:14;;;;;;;21.35;12.38;;;;;;;1.91;100.00;99523.06;4894472;29;20037;-82
2023/12/24 08:16:40;;;;;;;21.30;12.98;;;;;;;2.03;100.00;99523.19;4890342;29;20036;-77
2023/12/24 08:19:05;;;;;;;16.13;11.50;;;;;;;1.98;100.00;99525.22;4889143;29;20401;-79
2023/12/24 08:21:31;;;;;;;17.63;12.27;;;;;;;2.18;100.00;99525.84;4897266;29;20049;-82
2023/12/24 08:23:57;;;;;;;18.13;12.50;;;;;;;2.25;100.00;99524.50;4889073;29;20033;-83
2023/12/24 08:26:26;;;;;;;17.25;12.32;;;;;;;2.51;100.00;99535.97;4895198;29;20401;-79
2023/12/24 08:31:25;;;;;;;21.92;11.95;;;;;;;2.40;100.00;99539.25;4889145;29;20040;-75
2023/12/24 08:33:50;;;;;;;18.60;12.90;;;;;;;2.57;100.00;99528.63;4894932;29;20039;-77
2023/12/24 08:36:16;;;;;;;18.77;12.70;;;;;;;2.48;100.00;99534.38;4895300;29;20083;-78
2023/12/24 08:38:41;;;;;;;17.83;12.43;;;;;;;2.61;100.00;99522.31;4893275;29;20036;-77
2023/12/24 08:41:07;;;;;;;19.95;13.40;;;;;;;2.81;100.00;99534.97;4894492;29;20073;-77
2023/12/24 08:43:32;;;;;;;16.15;11.50;;;;;;;2.88;100.00;99538.88;4894027;29;20032;-77
2023/12/24 08:46:00;;;;;;;18.45;13.73;;;;;;;2.92;100.00;99543.88;4893895;29;20029;-77
2023/12/24 08:48:25;;;;;;;19.52;12.35;;;;;;;2.93;100.00;99545.56;4897405;29;20051;-77
2023/12/24 08:50:51;;;;;;;21.00;12.65;;;;;;;2.92;100.00;99551.69;4893762;29;20036;-77
2023/12/24 08:53:16;;;;;;;17.30;11.77;;;;;;;3.12;100.00;99548.69;4895187;29;20044;-80
2023/12/24 08:55:42;;;;;;;15.35;11.90;;;;;;;3.32;100.00;99547.41;4892230;29;20040;-80
2023/12/24 08:58:07;;;;;;;18.17;12.98;;;;;;;3.48;100.00;99554.16;4894988;29;20051;-79
2023/12/24 09:00:33;;;;;;;16.52;12.27;;;;;;;3.57;100.00;99548.38;4895139;29;20041;-80
2023/12/24 09:02:59;;;;;;;17.73;12.48;;;;;;;3.62;100.00;99546.31;4904932;29;20052;-78
2023/12/24 09:05:24;;;;;;;18.50;12.20;;;;;;;3.35;100.00;99548.09;4895170;29;20478;-78
2023/12/24 09:07:49;;;;;;;18.58;14.02;;;;;;;3.38;100.00;99552.25;4909254;29;20040;-79
2023/12/24 09:10:15;;;;;;;16.27;12.65;;;;;;;3.62;100.00;99542.84;4895235;29;20040;-81
2023/12/24 09:12:41;;;;;;;18.88;13.23;;;;;;;3.69;100.00;99552.81;4894596;29;20091;-79
2023/12/24 09:15:07;;;;;;;20.92;13.60;;;;;;;3.71;100.00;99561.34;4894405;29;20037;-80
2023/12/24 09:17:32;;;;;;;18.13;13.65;;;;;;;3.86;100.00;99569.13;4894969;29;20036;-78
2023/12/24 09:19:58;;;;;;;17.33;13.38;;;;;;;4.00;100.00;99574.31;4894281;29;20036;-78
2023/12/24 09:22:23;;;;;;;17.00;13.38;;;;;;;4.17;100.00;99579.25;4893104;29;20036;-78
2023/12/24 09:24:49;;;;;;;21.38;14.27;;;;;;;4.32;100.00;99586.03;4892619;29;20510;-77
2023/12/24 09:27:14;;;;;;;18.52;13.32;;;;;;;4.48;100.00;99578.84;4906990;29;20473;-78
2023/12/24 09:29:40;;;;;;;14.90;11.70;;;;;;;4.66;100.00;99592.44;4894576;29;20493;-76
2023/12/24 09:32:05;;;;;;;16.52;12.35;;;;;;;4.83;100.00;99592.09;4894340;29;20088;-80
2023/12/24 09:34:31;;;;;;;17.67;11.25;;;;;;;5.02;100.00;99583.00;4894441;29;20048;-77
2023/12/24 09:36:58;;;;;;;13.43;11.07;;;;;;;5.15;100.00;99584.66;4894329;29;20043;-79
2023/12/24 09:39:23;;;;;;;15.68;10.65;;;;;;;5.33;100.00;99577.28;4893531;29;20060;-79
2023/12/24 09:41:49;;;;;;;17.38;10.82;;;;;;;5.50;100.00;99589.16;4893933;29;20073;-78
2023/12/24 09:44:15;;;;;;;14.50;11.10;;;;;;;5.65;100.00;99588.06;4893425;29;20072;-77
2023/12/24 09:46:40;;;;;;;18.45;10.65;;;;;;;5.87;100.00;99592.56;4905347;29;20037;-78
2023/12/24 09:49:05;;;;;;;17.27;10.90;;;;;;;6.03;100.00;99586.13;4893665;29;20044;-78
2023/12/24 09:51:35;;;;;;;21.42;11.65;;;;;;;6.16;100.00;99571.19;4906193;29;20041;-78
2023/12/24 09:54:01;;;;;;;18.55;10.65;;;;;;;6.30;100.00;99601.59;4893402;29;20481;-78
2023/12/24 09:56:28;;;;;;;14.32;10.50;;;;;;;6.43;100.00;99593.63;4892787;29;20036;-79
2023/12/24 09:58:53;;;;;;;14.85;11.07;;;;;;;6.56;100.00;99602.25;4892847;29;20114;-78
2023/12/24 10:01:19;;;;;;;21.42;12.93;;;;;;;6.68;100.00;99601.31;4898476;29;20190;-77
2023/12/24 10:03:45;;;;;;;21.38;13.35;;;;;;;6.82;100.00;99593.22;4897163;29;20033;-78
2023/12/24 10:06:10;;;;;;;20.75;13.38;;;;;;;6.94;100.00;99588.81;4898792;29;20107;-74
2023/12/24 10:08:36;;;;;;;17.02;13.05;;;;;;;7.04;100.00;99583.69;4897947;29;20037;-78
2023/12/24 10:11:23;;;;;;;20.85;13.05;;;;;;;7.15;100.00;99586.31;4898682;29;20028;-77
2023/12/24 10:13:59;;;;;;;18.92;14.20;;;;;;;7.23;100.00;99586.53;4898530;29;20068;-76
2023/12/24 10:16:26;;;;;;;20.33;14.23;;;;;;;7.31;100.00;99578.88;4897392;29;20504;-77
2023/12/24 10:18:54;;;;;;;17.52;13.80;;;;;;;7.40;100.00;99586.03;4896106;29;20388;-78
2023/12/24 10:21:20;;;;;;;19.77;14.02;;;;;;;7.51;100.00;99588.66;4902429;29;20043;-80
2023/12/24 10:23:46;;;;;;;20.85;13.48;;;;;;;7.59;100.00;99588.88;4892997;29;20469;-78
2023/12/24 10:26:12;;;;;;;19.70;13.95;;;;;;;7.67;100.00;99583.81;4895018;29;20568;-78
2023/12/24 10:28:51;;;;;;;18.85;12.80;;;;;;;7.74;100.00;99571.88;4897001;29;20111;-80
2023/12/24 10:31:17;;;;;;;17.70;12.75;;;;;;;7.75;100.00;99567.47;4896998;29;20055;-80
2023/12/24 10:33:46;;;;;;;18.23;12.82;;;;;;;7.83;100.00;99571.09;4896589;29;20404;-78
2023/12/24 10:36:11;;;;;;;17.85;12.25;;;;;;;7.91;100.00;99573.13;4896526;29;20021;-78
2023/12/24 10:38:38;;;;;;;17.40;12.98;;;;;;;7.95;100.00;99573.72;4909205;29;20680;-78
2023/12/24 10:41:09;;;;;;;18.55;12.93;;;;;;;7.99;100.00;99569.88;4893024;29;20139;-78
2023/12/24 10:43:35;;;;;;;17.95;13.25;;;;;;;8.05;100.00;99564.94;4896019;29;20061;-78
2023/12/24 10:46:00;;;;;;;19.02;13.15;;;;;;;8.10;100.00;99556.69;4895845;29;20066;-78
2023/12/24 10:48:26;;;;;;;18.70;12.85;;;;;;;8.18;100.00;99549.00;4909743;29;20499;-77
2023/12/24 10:50:51;;;;;;;18.85;12.95;;;;;;;8.23;100.00;99552.91;4897103;29;20031;-78
2023/12/24 10:53:17;;;;;;;17.33;13.55;;;;;;;8.31;100.00;99554.06;4897041;29;20073;-78
2023/12/24 10:55:59;;;;;;;17.70;13.23;;;;;;;8.39;100.00;99547.22;4896250;29;20429;-80
2023/12/24 10:58:46;;;;;;;20.38;14.32;;;;;;;8.47;100.00;99560.56;4896771;29;20040;-78
2023/12/24 11:01:14;;;;;;;22.75;13.70;;;;;;;8.54;100.00;99553.81;4896415;29;20040;-77
2023/12/24 11:03:49;;;;;;;19.35;13.40;;;;;;;8.62;100.00;99538.22;4893588;29;20072;-77
2023/12/24 11:06:36;;;;;;;18.80;12.43;;;;;;;8.70;100.00;99528.84;4893938;29;20036;-77
2023/12/24 11:09:30;;;;;;;16.38;12.45;;;;;;;8.77;100.00;99525.56;4895835;29;20142;-77
2023/12/24 11:11:58;;;;;;;19.05;12.95;;;;;;;8.84;100.00;99536.38;4896090;29;20033;-78
2023/12/24 11:14:47;;;;;;;20.42;13.50;;;;;;;8.91;100.00;99532.25;4896587;29;20469;-77
2023/12/24 11:17:31;;;;;;;16.33;12.75;;;;;;;9.00;100.00;99528.84;4892619;29;20036;-78